Time;durP1;ratioP1;P1;durP2;ratioP2;P2;SDS_P1;SDS_P2;PMS_P1;PMS_P2;Temp;Humidity;BMP_temperature;BMP_pressure;BME280_temperature;BME280_humidity;BME280_pressure;Samples;Min_cycle;Max_cycle;Signal;HPM_P1;HPM_P2
2023/11/29 00:00:08;;;;;;;12.83;7.50;;;;;;;;;;690753;28;844;-66
2023/11/29 00:00:32;;;;;;;12.60;7.65;;;;;;;;;;690014;28;2262;-67
2023/11/29 00:00:52;;;;;;;11.07;7.38;;;;;;;;;;692355;28;4407;-67
2023/11/29 00:01:12;;;;;;;12.47;7.53;;;;;;;;;;688271;28;868;-67
2023/11/29 00:01:33;;;;;;;12.53;7.40;;;;;;;;;;689541;28;1138;-68
2023/11/29 00:01:54;;;;;;;11.00;7.10;;;;;;;;;;690396;28;991;-67
2023/11/29 00:02:14;;;;;;;11.82;7.15;;;;;;;;;;690397;28;782;-67
2023/11/29 00:02:34;;;;;;;11.57;6.80;;;;;;;;;;687190;28;1705;-67
2023/11/29 00:02:55;;;;;;;11.77;6.87;;;;;;;;;;688657;28;971;-68
2023/11/29 00:03:15;;;;;;;10.93;6.72;;;;;;;;;;688226;28;1004;-69
2023/11/29 00:03:35;;;;;;;11.23;7.00;;;;;;;;;;687018;28;4283;-67
2023/11/29 00:03:55;;;;;;;11.80;7.47;;;;;;;;;;687757;28;832;-69
2023/11/29 00:04:16;;;;;;;11.27;7.57;;;;;;;;;;687943;28;892;-67
2023/11/29 00:04:36;;;;;;;10.70;7.33;;;;;;;;;;687728;28;1758;-67
2023/11/29 00:04:57;;;;;;;10.82;7.13;;;;;;;;;;690476;28;872;-66
2023/11/29 00:05:19;;;;;;;11.93;7.15;;;;;;;;;;690655;28;938;-67
2023/11/29 00:05:39;;;;;;;11.27;7.50;;;;;;;;;;689795;28;2263;-69
2023/11/29 00:06:02;;;;;;;11.23;7.20;;;;;;;;;;690409;28;1418;-67
2023/11/29 00:06:23;;;;;;;11.07;7.35;;;;;;;;;;690245;28;845;-67
2023/11/29 00:06:44;;;;;;;11.52;7.25;;;;;;;;;;688685;28;4276;-66
2023/11/29 00:07:05;;;;;;;11.40;6.88;;;;;;;;;;690244;28;856;-66
2023/11/29 00:07:26;;;;;;;12.75;7.35;;;;;;;;;;690816;28;822;-67
2023/11/29 00:07:48;;;;;;;12.10;6.90;;;;;;;;;;691289;28;2447;-69
2023/11/29 00:08:09;;;;;;;11.73;7.03;;;;;;;;;;690302;28;877;-66
2023/11/29 00:08:30;;;;;;;11.45;7.53;;;;;;;;;;690336;28;861;-66
2023/11/29 00:08:54;;;;;;;11.32;7.40;;;;;;;;;;689877;28;1710;-65
2023/11/29 00:09:15;;;;;;;12.85;7.43;;;;;;;;;;689889;28;876;-70
2023/11/29 00:09:35;;;;;;;11.27;7.30;;;;;;;;;;689245;28;4640;-69
2023/11/29 00:09:56;;;;;;;12.13;7.57;;;;;;;;;;690622;28;921;-66
2023/11/29 00:10:16;;;;;;;11.75;7.05;;;;;;;;;;690392;28;900;-66
2023/11/29 00:10:37;;;;;;;11.47;7.40;;;;;;;;;;687050;28;1906;-66
2023/11/29 00:10:57;;;;;;;11.00;7.20;;;;;;;;;;690599;28;920;-66
2023/11/29 00:11:17;;;;;;;11.00;6.85;;;;;;;;;;690407;28;948;-66
2023/11/29 00:11:37;;;;;;;13.20;7.60;;;;;;;;;;689900;28;2279;-67
2023/11/29 00:11:58;;;;;;;10.87;7.13;;;;;;;;;;690755;28;848;-66
2023/11/29 00:12:18;;;;;;;11.70;7.50;;;;;;;;;;690747;28;769;-66
2023/11/29 00:12:38;;;;;;;11.70;7.30;;;;;;;;;;689088;28;4459;-70
2023/11/29 00:12:59;;;;;;;11.85;7.45;;;;;;;;;;690948;28;797;-67
2023/11/29 00:13:20;;;;;;;12.13;7.00;;;;;;;;;;690487;28;852;-70
2023/11/29 00:13:40;;;;;;;11.23;7.22;;;;;;;;;;689678;28;2549;-67
2023/11/29 00:14:00;;;;;;;11.47;7.33;;;;;;;;;;690835;28;877;-67
2023/11/29 00:14:20;;;;;;;12.20;7.55;;;;;;;;;;690558;28;870;-67
2023/11/29 00:14:41;;;;;;;11.53;7.03;;;;;;;;;;689111;28;1472;-68
2023/11/29 00:15:01;;;;;;;11.67;6.80;;;;;;;;;;690128;28;1456;-68
2023/11/29 00:15:23;;;;;;;12.10;6.72;;;;;;;;;;690789;28;1026;-69
2023/11/29 00:15:43;;;;;;;11.50;6.45;;;;;;;;;;689564;28;4411;-67
2023/11/29 00:16:03;;;;;;;11.03;6.50;;;;;;;;;;687741;28;1328;-68
2023/11/29 00:16:24;;;;;;;10.93;6.73;;;;;;;;;;687647;28;825;-66
2023/11/29 00:16:44;;;;;;;10.93;6.72;;;;;;;;;;686564;28;1578;-66
2023/11/29 00:17:04;;;;;;;11.20;7.03;;;;;;;;;;687572;28;932;-67
2023/11/29 00:17:26;;;;;;;11.60;7.13;;;;;;;;;;685122;28;1173;-67
2023/11/29 00:17:46;;;;;;;11.27;6.90;;;;;;;;;;684374;28;1882;-68
2023/11/29 00:18:06;;;;;;;11.10;7.23;;;;;;;;;;687964;28;1017;-68
2023/11/29 00:18:26;;;;;;;12.38;7.43;;;;;;;;;;685105;28;857;-67
2023/11/29 00:18:48;;;;;;;11.67;7.17;;;;;;;;;;683460;28;4281;-67
2023/11/29 00:19:08;;;;;;;10.38;6.90;;;;;;;;;;682285;28;1415;-66
2023/11/29 00:19:29;;;;;;;10.00;6.70;;;;;;;;;;682612;28;1162;-66
2023/11/29 00:19:49;;;;;;;10.23;6.70;;;;;;;;;;685315;28;2428;-67
2023/11/29 00:20:11;;;;;;;11.55;6.97;;;;;;;;;;685652;28;5461;-66
2023/11/29 00:20:31;;;;;;;12.55;6.82;;;;;;;;;;684880;28;972;-66
2023/11/29 00:20:52;;;;;;;10.90;6.90;;;;;;;;;;684700;28;1899;-67
2023/11/29 00:21:12;;;;;;;10.40;6.82;;;;;;;;;;687785;28;889;-67
2023/11/29 00:21:32;;;;;;;10.60;6.90;;;;;;;;;;688114;28;880;-67
2023/11/29 00:21:52;;;;;;;11.20;7.20;;;;;;;;;;686188;28;4241;-67
2023/11/29 00:22:13;;;;;;;11.35;7.28;;;;;;;;;;687929;28;813;-67
2023/11/29 00:22:33;;;;;;;11.03;7.03;;;;;;;;;;685251;28;1504;-67
2023/11/29 00:22:54;;;;;;;11.27;6.75;;;;;;;;;;686164;28;834;-67
2023/11/29 00:23:14;;;;;;;12.17;6.80;;;;;;;;;;685195;28;790;-68
2023/11/29 00:23:34;;;;;;;12.63;7.03;;;;;;;;;;686022;28;1338;-68
2023/11/29 00:23:54;;;;;;;11.35;6.85;;;;;;;;;;688152;28;955;-67
2023/11/29 00:24:15;;;;;;;10.30;7.00;;;;;;;;;;686854;28;821;-67
2023/11/29 00:24:35;;;;;;;11.50;7.00;;;;;;;;;;685332;28;4438;-69
2023/11/29 00:24:56;;;;;;;11.07;6.88;;;;;;;;;;690484;28;908;-66
2023/11/29 00:25:16;;;;;;;11.23;6.78;;;;;;;;;;690418;28;1035;-66
2023/11/29 00:25:37;;;;;;;10.60;6.60;;;;;;;;;;689417;28;1898;-66
2023/11/29 00:25:57;;;;;;;10.77;6.90;;;;;;;;;;690547;28;850;-66
2023/11/29 00:26:18;;;;;;;10.47;6.90;;;;;;;;;;690754;28;750;-66
2023/11/29 00:26:38;;;;;;;9.85;6.32;;;;;;;;;;689574;28;2387;-69
2023/11/29 00:26:59;;;;;;;10.45;6.60;;;;;;;;;;690486;28;842;-67
2023/11/29 00:27:20;;;;;;;10.57;6.60;;;;;;;;;;689513;28;1362;-69
2023/11/29 00:27:41;;;;;;;10.30;6.47;;;;;;;;;;685995;28;4275;-69
2023/11/29 00:28:01;;;;;;;10.13;6.20;;;;;;;;;;688082;28;789;-69
2023/11/29 00:28:22;;;;;;;10.02;6.60;;;;;;;;;;687460;28;861;-69
2023/11/29 00:28:42;;;;;;;10.93;6.80;;;;;;;;;;686584;28;1826;-68
2023/11/29 00:29:03;;;;;;;10.48;6.72;;;;;;;;;;687720;28;935;-66
2023/11/29 00:29:24;;;;;;;10.30;6.50;;;;;;;;;;684504;28;809;-67
2023/11/29 00:29:44;;;;;;;9.73;6.40;;;;;;;;;;686566;28;2208;-66
2023/11/29 00:30:05;;;;;;;9.83;6.70;;;;;;;;;;684441;28;1156;-66
2023/11/29 00:30:28;;;;;;;9.82;6.22;;;;;;;;;;682411;28;850;-67
2023/11/29 00:30:49;;;;;;;10.73;6.57;;;;;;;;;;682091;28;4338;-67
2023/11/29 00:31:09;;;;;;;10.30;6.53;;;;;;;;;;682418;28;1261;-67
2023/11/29 00:31:29;;;;;;;10.17;6.63;;;;;;;;;;683444;28;1321;-69
2023/11/29 00:31:50;;;;;;;10.43;6.47;;;;;;;;;;683900;28;2607;-67
2023/11/29 00:32:10;;;;;;;10.30;6.70;;;;;;;;;;686677;28;897;-67
2023/11/29 00:32:30;;;;;;;10.53;6.87;;;;;;;;;;685276;28;956;-66
2023/11/29 00:32:51;;;;;;;9.63;6.68;;;;;;;;;;682295;28;1623;-67
2023/11/29 00:33:12;;;;;;;9.73;6.30;;;;;;;;;;683373;28;937;-69
2023/11/29 00:33:32;;;;;;;9.87;6.30;;;;;;;;;;685611;28;813;-69
2023/11/29 00:33:52;;;;;;;10.70;6.30;;;;;;;;;;684405;28;4246;-69
2023/11/29 00:34:13;;;;;;;10.20;6.30;;;;;;;;;;686525;28;754;-67
2023/11/29 00:34:34;;;;;;;9.93;6.13;;;;;;;;;;686229;28;1802;-66
2023/11/29 00:34:55;;;;;;;10.10;6.13;;;;;;;;;;686415;28;1254;-69
2023/11/29 00:35:17;;;;;;;11.23;6.40;;;;;;;;;;685381;28;932;-67
2023/11/29 00:35:38;;;;;;;10.70;6.00;;;;;;;;;;681045;28;2316;-68
2023/11/29 00:35:58;;;;;;;10.90;6.20;;;;;;;;;;682590;28;1178;-67
2023/11/29 00:36:18;;;;;;;10.33;6.13;;;;;;;;;;682935;28;1106;-68
2023/11/29 00:36:38;;;;;;;10.23;6.25;;;;;;;;;;683667;28;4288;-66
2023/11/29 00:36:59;;;;;;;10.23;6.40;;;;;;;;;;687504;28;808;-67
2023/11/29 00:37:20;;;;;;;10.07;6.32;;;;;;;;;;684766;28;1362;-68
2023/11/29 00:37:40;;;;;;;10.10;6.30;;;;;;;;;;683352;28;1813;-67
2023/11/29 00:38:01;;;;;;;10.43;6.57;;;;;;;;;;682796;28;940;-67
2023/11/29 00:38:21;;;;;;;11.80;6.77;;;;;;;;;;684927;28;971;-67
2023/11/29 00:38:42;;;;;;;11.70;6.78;;;;;;;;;;684119;28;1452;-67
2023/11/29 00:39:02;;;;;;;10.87;6.37;;;;;;;;;;683935;28;6196;-67
2023/11/29 00:39:22;;;;;;;10.27;6.32;;;;;;;;;;684489;28;913;-67
2023/11/29 00:39:43;;;;;;;9.67;6.20;;;;;;;;;;683685;28;4446;-66
2023/11/29 00:40:03;;;;;;;10.45;6.05;;;;;;;;;;686010;28;1231;-67
2023/11/29 00:40:24;;;;;;;10.80;6.50;;;;;;;;;;687761;28;1432;-67
2023/11/29 00:40:44;;;;;;;10.00;6.13;;;;;;;;;;687683;28;2574;-67
2023/11/29 00:41:05;;;;;;;11.02;6.45;;;;;;;;;;688322;28;949;-67
2023/11/29 00:41:26;;;;;;;11.02;6.50;;;;;;;;;;685311;28;1046;-67
2023/11/29 00:41:46;;;;;;;11.07;6.87;;;;;;;;;;683653;28;1834;-67
2023/11/29 00:42:07;;;;;;;11.60;6.60;;;;;;;;;;684983;28;778;-67
2023/11/29 00:42:27;;;;;;;11.90;6.80;;;;;;;;;;684844;28;1528;-66
2023/11/29 00:42:47;;;;;;;10.32;6.75;;;;;;;;;;684882;28;4474;-67
2023/11/29 00:43:08;;;;;;;10.53;6.47;;;;;;;;;;685408;28;1482;-68
2023/11/29 00:43:28;;;;;;;11.05;6.40;;;;;;;;;;690269;28;936;-68
2023/11/29 00:43:49;;;;;;;11.00;6.70;;;;;;;;;;685274;28;1544;-68
2023/11/29 00:44:09;;;;;;;11.60;6.82;;;;;;;;;;684562;28;1198;-69
2023/11/29 00:44:29;;;;;;;10.67;6.37;;;;;;;;;;682691;28;1256;-69
2023/11/29 00:44:52;;;;;;;10.90;6.60;;;;;;;;;;681903;28;1800;-66
2023/11/29 00:45:12;;;;;;;9.50;5.88;;;;;;;;;;686201;28;1189;-67
2023/11/29 00:45:33;;;;;;;10.43;6.53;;;;;;;;;;683254;28;1308;-67
2023/11/29 00:45:53;;;;;;;10.50;6.33;;;;;;;;;;686540;28;4337;-66
2023/11/29 00:46:13;;;;;;;10.60;6.37;;;;;;;;;;688737;28;869;-67
2023/11/29 00:46:33;;;;;;;10.82;6.80;;;;;;;;;;687728;28;873;-68
2023/11/29 00:46:54;;;;;;;9.73;6.30;;;;;;;;;;684907;28;919;-67
2023/11/29 00:47:15;;;;;;;9.55;6.22;;;;;;;;;;682620;28;1180;-67
2023/11/29 00:47:35;;;;;;;10.50;6.43;;;;;;;;;;681345;28;2293;-66
2023/11/29 00:47:57;;;;;;;10.75;6.53;;;;;;;;;;684119;28;741;-66
2023/11/29 00:48:17;;;;;;;10.25;6.20;;;;;;;;;;680109;29;1364;-66
2023/11/29 00:48:37;;;;;;;9.47;6.10;;;;;;;;;;679578;28;4504;-66
2023/11/29 00:48:58;;;;;;;11.03;6.43;;;;;;;;;;681673;28;930;-66
2023/11/29 00:49:18;;;;;;;10.80;6.53;;;;;;;;;;684476;28;917;-67
2023/11/29 00:49:38;;;;;;;10.60;6.43;;;;;;;;;;684314;28;2785;-67
2023/11/29 00:49:58;;;;;;;10.43;6.63;;;;;;;;;;684145;28;847;-67
2023/11/29 00:50:19;;;;;;;9.93;6.65;;;;;;;;;;681242;28;1410;-67
2023/11/29 00:50:39;;;;;;;10.43;6.40;;;;;;;;;;686261;28;1777;-68
2023/11/29 00:50:59;;;;;;;10.63;6.17;;;;;;;;;;685013;28;1353;-68
2023/11/29 00:51:20;;;;;;;9.80;6.05;;;;;;;;;;684920;28;889;-69
2023/11/29 00:51:40;;;;;;;10.77;6.23;;;;;;;;;;683563;28;4319;-67
2023/11/29 00:52:00;;;;;;;11.10;6.70;;;;;;;;;;685422;28;887;-68
2023/11/29 00:52:20;;;;;;;10.53;6.40;;;;;;;;;;684116;28;1383;-67
2023/11/29 00:52:41;;;;;;;10.93;6.33;;;;;;;;;;684288;28;2307;-68
2023/11/29 00:53:01;;;;;;;9.93;5.85;;;;;;;;;;687864;28;920;-66
2023/11/29 00:53:21;;;;;;;9.57;5.73;;;;;;;;;;687615;28;993;-69
2023/11/29 00:53:43;;;;;;;10.17;6.50;;;;;;;;;;687430;28;2240;-67
2023/11/29 00:54:04;;;;;;;9.85;6.57;;;;;;;;;;688208;28;1003;-67
2023/11/29 00:54:24;;;;;;;10.40;6.40;;;;;;;;;;689865;28;821;-68
2023/11/29 00:54:45;;;;;;;11.63;6.47;;;;;;;;;;689695;28;4328;-70
2023/11/29 00:55:05;;;;;;;11.30;6.20;;;;;;;;;;690225;28;1132;-66
2023/11/29 00:55:25;;;;;;;10.20;6.23;;;;;;;;;;690027;28;1227;-68
2023/11/29 00:55:46;;;;;;;10.80;6.30;;;;;;;;;;689578;28;1841;-67
2023/11/29 00:56:06;;;;;;;10.27;6.20;;;;;;;;;;689839;28;1407;-67
2023/11/29 00:56:26;;;;;;;9.23;5.95;;;;;;;;;;689808;28;834;-67
2023/11/29 00:56:48;;;;;;;10.57;6.60;;;;;;;;;;689136;28;1762;-67
2023/11/29 00:57:08;;;;;;;10.20;6.53;;;;;;;;;;687912;28;837;-67
2023/11/29 00:57:28;;;;;;;9.90;6.23;;;;;;;;;;687830;28;845;-69
2023/11/29 00:57:49;;;;;;;9.70;6.13;;;;;;;;;;684761;28;5271;-66
2023/11/29 00:58:09;;;;;;;9.18;6.28;;;;;;;;;;685346;28;877;-66
2023/11/29 00:58:29;;;;;;;9.93;6.40;;;;;;;;;;687683;28;920;-66
2023/11/29 00:58:49;;;;;;;10.60;6.27;;;;;;;;;;687640;28;1716;-66
2023/11/29 00:59:10;;;;;;;11.70;6.70;;;;;;;;;;687225;28;1530;-67
2023/11/29 00:59:30;;;;;;;11.23;6.47;;;;;;;;;;683830;28;1357;-66
2023/11/29 00:59:50;;;;;;;9.33;6.10;;;;;;;;;;684183;28;2451;-66
2023/11/29 01:00:11;;;;;;;9.25;5.90;;;;;;;;;;685168;28;1255;-69
2023/11/29 01:00:31;;;;;;;9.38;6.10;;;;;;;;;;684612;28;940;-69
2023/11/29 01:00:52;;;;;;;9.00;6.10;;;;;;;;;;684491;28;6403;-68
2023/11/29 01:01:12;;;;;;;9.73;6.18;;;;;;;;;;688036;28;1502;-67
2023/11/29 01:01:33;;;;;;;10.43;6.63;;;;;;;;;;684975;28;909;-67
2023/11/29 01:01:54;;;;;;;10.13;5.68;;;;;;;;;;684525;28;2212;-65
2023/11/29 01:02:15;;;;;;;10.77;6.13;;;;;;;;;;685106;28;854;-66
2023/11/29 01:02:35;;;;;;;10.38;6.50;;;;;;;;;;683909;28;1773;-67
2023/11/29 01:02:56;;;;;;;10.77;6.53;;;;;;;;;;682223;28;1424;-66
2023/11/29 01:03:17;;;;;;;9.90;5.90;;;;;;;;;;683882;28;869;-66
2023/11/29 01:03:37;;;;;;;10.70;6.15;;;;;;;;;;682432;28;4273;-66
2023/11/29 01:04:00;;;;;;;10.97;6.17;;;;;;;;;;684855;28;841;-67
2023/11/29 01:04:20;;;;;;;10.45;5.97;;;;;;;;;;684708;28;893;-65
2023/11/29 01:04:40;;;;;;;9.40;5.80;;;;;;;;;;686901;28;2486;-70
2023/11/29 01:05:00;;;;;;;11.05;6.38;;;;;;;;;;687246;28;876;-64
2023/11/29 01:05:21;;;;;;;11.03;6.40;;;;;;;;;;687720;28;857;-66
2023/11/29 01:05:41;;;;;;;9.73;6.00;;;;;;;;;;687793;28;1330;-66
2023/11/29 01:06:01;;;;;;;10.65;6.45;;;;;;;;;;690234;28;857;-66
2023/11/29 01:06:21;;;;;;;11.13;6.50;;;;;;;;;;688886;28;1234;-67
2023/11/29 01:06:42;;;;;;;11.93;6.60;;;;;;;;;;684601;28;4287;-67
2023/11/29 01:07:02;;;;;;;10.43;6.30;;;;;;;;;;688243;28;1353;-68
2023/11/29 01:07:22;;;;;;;10.00;5.80;;;;;;;;;;688824;28;1085;-68
2023/11/29 01:07:43;;;;;;;10.47;6.00;;;;;;;;;;688434;28;1592;-65
2023/11/29 01:08:03;;;;;;;9.60;5.80;;;;;;;;;;685696;28;845;-66
2023/11/29 01:08:26;;;;;;;9.57;5.93;;;;;;;;;;689013;28;869;-67
2023/11/29 01:08:47;;;;;;;10.45;6.35;;;;;;;;;;687917;28;1916;-66
2023/11/29 01:09:09;;;;;;;9.83;6.03;;;;;;;;;;687224;28;1856;-66
2023/11/29 01:09:30;;;;;;;9.88;6.28;;;;;;;;;;685506;28;2038;-66
2023/11/29 01:09:50;;;;;;;10.15;5.90;;;;;;;;;;686577;28;4276;-66
2023/11/29 01:10:11;;;;;;;10.97;6.47;;;;;;;;;;689653;28;1338;-66
2023/11/29 01:10:31;;;;;;;11.17;6.80;;;;;;;;;;686935;28;929;-66
2023/11/29 01:10:52;;;;;;;10.68;6.40;;;;;;;;;;685213;28;956;-66
2023/11/29 01:11:12;;;;;;;11.57;6.57;;;;;;;;;;685885;28;1275;-66
2023/11/29 01:11:33;;;;;;;10.43;6.17;;;;;;;;;;689516;28;778;-69
2023/11/29 01:11:53;;;;;;;9.95;6.03;;;;;;;;;;688540;28;1903;-66
2023/11/29 01:12:14;;;;;;;10.53;6.23;;;;;;;;;;687131;28;830;-66
2023/11/29 01:12:34;;;;;;;9.60;6.18;;;;;;;;;;684853;28;1338;-66
2023/11/29 01:12:54;;;;;;;9.70;5.90;;;;;;;;;;684803;28;4932;-68
2023/11/29 01:13:15;;;;;;;10.17;5.77;;;;;;;;;;684527;28;1424;-68
2023/11/29 01:13:35;;;;;;;9.98;6.38;;;;;;;;;;679051;29;1206;-66
2023/11/29 01:13:56;;;;;;;10.40;6.35;;;;;;;;;;680675;29;1260;-65
2023/11/29 01:14:16;;;;;;;10.55;6.32;;;;;;;;;;682888;28;966;-66
2023/11/29 01:14:37;;;;;;;11.17;6.00;;;;;;;;;;683385;28;1934;-66
2023/11/29 01:14:57;;;;;;;10.67;6.37;;;;;;;;;;684106;28;1415;-66
2023/11/29 01:15:18;;;;;;;10.15;6.45;;;;;;;;;;685521;28;885;-65
2023/11/29 01:15:38;;;;;;;10.05;6.60;;;;;;;;;;688629;28;4351;-64
2023/11/29 01:15:59;;;;;;;10.17;6.47;;;;;;;;;;690113;28;785;-65
2023/11/29 01:16:19;;;;;;;10.03;6.77;;;;;;;;;;687501;28;5254;-65
2023/11/29 01:16:39;;;;;;;10.63;6.60;;;;;;;;;;688523;28;1089;-65
2023/11/29 01:16:59;;;;;;;10.30;6.40;;;;;;;;;;687498;28;1315;-65
2023/11/29 01:17:20;;;;;;;9.77;6.00;;;;;;;;;;687048;28;1133;-65
2023/11/29 01:17:40;;;;;;;11.23;6.37;;;;;;;;;;686577;28;1716;-66
2023/11/29 01:18:00;;;;;;;10.63;6.23;;;;;;;;;;688588;28;771;-65
2023/11/29 01:18:21;;;;;;;11.52;6.05;;;;;;;;;;685244;28;841;-65
2023/11/29 01:18:41;;;;;;;10.53;6.03;;;;;;;;;;682792;28;4500;-65
2023/11/29 01:19:02;;;;;;;10.50;6.22;;;;;;;;;;687472;28;838;-65
2023/11/29 01:19:23;;;;;;;10.63;6.10;;;;;;;;;;687392;28;881;-65
2023/11/29 01:19:44;;;;;;;9.85;6.13;;;;;;;;;;687223;28;2595;-66
2023/11/29 01:20:06;;;;;;;10.82;6.78;;;;;;;;;;688015;28;892;-67
2023/11/29 01:20:27;;;;;;;10.98;6.68;;;;;;;;;;690582;28;806;-67
2023/11/29 01:20:47;;;;;;;10.37;6.20;;;;;;;;;;686073;28;1973;-65
2023/11/29 01:21:11;;;;;;;11.52;6.38;;;;;;;;;;687800;28;1152;-66
2023/11/29 01:21:33;;;;;;;10.35;6.20;;;;;;;;;;686605;28;881;-67
2023/11/29 01:21:54;;;;;;;10.82;6.05;;;;;;;;;;685687;28;4420;-69
2023/11/29 01:22:14;;;;;;;11.02;6.40;;;;;;;;;;687876;28;805;-68
2023/11/29 01:22:35;;;;;;;10.17;5.93;;;;;;;;;;689067;28;1305;-67
2023/11/29 01:22:56;;;;;;;9.85;5.72;;;;;;;;;;686358;28;2375;-67
2023/11/29 01:23:16;;;;;;;9.53;5.70;;;;;;;;;;687881;28;818;-67
2023/11/29 01:23:36;;;;;;;11.03;6.07;;;;;;;;;;686946;28;1892;-67
2023/11/29 01:23:57;;;;;;;10.60;6.20;;;;;;;;;;684693;28;873;-67
2023/11/29 01:24:17;;;;;;;10.83;6.50;;;;;;;;;;684929;28;853;-67
2023/11/29 01:24:37;;;;;;;10.77;6.30;;;;;;;;;;681060;28;4514;-67
2023/11/29 01:24:57;;;;;;;10.48;6.05;;;;;;;;;;683029;28;920;-68
2023/11/29 01:25:17;;;;;;;10.13;6.10;;;;;;;;;;685245;28;802;-69
2023/11/29 01:25:38;;;;;;;9.83;6.00;;;;;;;;;;683038;28;1256;-67
2023/11/29 01:25:58;;;;;;;9.98;6.40;;;;;;;;;;684104;28;874;-65
2023/11/29 01:26:19;;;;;;;10.30;6.23;;;;;;;;;;683282;28;1238;-66
2023/11/29 01:26:39;;;;;;;11.00;6.20;;;;;;;;;;684700;28;929;-67
2023/11/29 01:26:59;;;;;;;10.43;6.13;;;;;;;;;;687117;28;893;-65
2023/11/29 01:27:19;;;;;;;12.13;6.73;;;;;;;;;;684753;28;2121;-66
2023/11/29 01:27:40;;;;;;;10.80;6.23;;;;;;;;;;683319;28;4421;-66
2023/11/29 01:28:03;;;;;;;10.35;6.55;;;;;;;;;;684988;28;1337;-66
2023/11/29 01:28:24;;;;;;;10.88;6.53;;;;;;;;;;687574;28;870;-66
2023/11/29 01:28:44;;;;;;;10.47;6.37;;;;;;;;;;687144;28;1036;-69
2023/11/29 01:29:04;;;;;;;10.25;5.95;;;;;;;;;;684992;28;1320;-70
2023/11/29 01:29:25;;;;;;;11.30;6.40;;;;;;;;;;687559;28;1160;-64
2023/11/29 01:29:45;;;;;;;11.60;6.80;;;;;;;;;;686284;28;970;-67
2023/11/29 01:30:06;;;;;;;11.80;7.03;;;;;;;;;;688652;28;1545;-66
2023/11/29 01:30:27;;;;;;;12.82;6.60;;;;;;;;;;689357;28;934;-67
2023/11/29 01:30:47;;;;;;;10.77;6.07;;;;;;;;;;687500;28;4259;-67
2023/11/29 01:31:08;;;;;;;10.57;5.80;;;;;;;;;;684228;28;766;-69
2023/11/29 01:31:28;;;;;;;10.30;5.30;;;;;;;;;;685606;28;1205;-71
2023/11/29 01:31:48;;;;;;;11.10;6.10;;;;;;;;;;684359;28;1425;-67
2023/11/29 01:32:09;;;;;;;10.35;6.50;;;;;;;;;;685176;28;860;-67
2023/11/29 01:32:29;;;;;;;10.10;6.53;;;;;;;;;;681924;28;1336;-67
2023/11/29 01:32:49;;;;;;;10.37;6.33;;;;;;;;;;684023;28;1099;-66
2023/11/29 01:33:09;;;;;;;10.52;6.75;;;;;;;;;;687589;28;815;-66
2023/11/29 01:33:30;;;;;;;11.00;6.77;;;;;;;;;;687434;28;904;-66
2023/11/29 01:33:50;;;;;;;9.53;6.03;;;;;;;;;;687943;28;4498;-66
2023/11/29 01:34:10;;;;;;;10.02;6.28;;;;;;;;;;687426;28;1210;-66
2023/11/29 01:34:31;;;;;;;11.67;7.10;;;;;;;;;;686933;28;1528;-67
2023/11/29 01:34:51;;;;;;;11.93;6.70;;;;;;;;;;687453;28;1173;-67
2023/11/29 01:35:11;;;;;;;11.80;6.60;;;;;;;;;;687582;28;1224;-67
2023/11/29 01:35:32;;;;;;;10.50;6.67;;;;;;;;;;686938;28;1354;-69
2023/11/29 01:35:52;;;;;;;10.23;6.28;;;;;;;;;;686707;28;1849;-70
2023/11/29 01:36:12;;;;;;;11.27;6.30;;;;;;;;;;687574;28;1232;-69
2023/11/29 01:36:33;;;;;;;11.90;7.07;;;;;;;;;;686982;28;1438;-66
2023/11/29 01:36:53;;;;;;;10.77;6.63;;;;;;;;;;682728;28;4646;-67
2023/11/29 01:37:14;;;;;;;10.77;6.30;;;;;;;;;;682468;28;1387;-67
2023/11/29 01:37:34;;;;;;;10.37;6.33;;;;;;;;;;684489;28;1367;-67
2023/11/29 01:37:54;;;;;;;11.90;7.00;;;;;;;;;;683789;28;1360;-67
2023/11/29 01:38:15;;;;;;;12.23;6.90;;;;;;;;;;683687;28;1494;-70
2023/11/29 01:38:35;;;;;;;10.47;6.60;;;;;;;;;;685468;28;1506;-68
2023/11/29 01:38:56;;;;;;;10.15;6.03;;;;;;;;;;685379;28;5701;-67
2023/11/29 01:39:17;;;;;;;10.60;6.13;;;;;;;;;;684741;28;1398;-66
2023/11/29 01:39:38;;;;;;;9.90;6.13;;;;;;;;;;684171;28;4556;-67
2023/11/29 01:39:58;;;;;;;10.30;6.57;;;;;;;;;;688224;28;1267;-67
2023/11/29 01:40:20;;;;;;;11.10;6.82;;;;;;;;;;686557;28;1432;-67
2023/11/29 01:40:40;;;;;;;11.32;6.45;;;;;;;;;;683840;28;1930;-67
2023/11/29 01:41:00;;;;;;;12.00;6.67;;;;;;;;;;687249;28;1311;-66
2023/11/29 01:41:21;;;;;;;11.27;6.60;;;;;;;;;;687645;28;1299;-65
2023/11/29 01:41:42;;;;;;;11.17;6.67;;;;;;;;;;683890;28;1343;-67
2023/11/29 01:42:03;;;;;;;11.32;7.20;;;;;;;;;;681348;28;1432;-66
2023/11/29 01:42:23;;;;;;;10.10;6.55;;;;;;;;;;684414;28;1335;-66
2023/11/29 01:42:44;;;;;;;10.52;6.35;;;;;;;;;;684289;28;4342;-66
2023/11/29 01:43:04;;;;;;;10.90;6.50;;;;;;;;;;686361;28;1228;-67
2023/11/29 01:43:25;;;;;;;10.82;6.32;;;;;;;;;;685904;28;1210;-69
2023/11/29 01:43:45;;;;;;;10.57;6.30;;;;;;;;;;683795;28;1304;-70
2023/11/29 01:44:05;;;;;;;11.27;6.50;;;;;;;;;;684618;28;1343;-66
2023/11/29 01:44:26;;;;;;;11.33;6.50;;;;;;;;;;683726;28;1205;-65
2023/11/29 01:44:46;;;;;;;10.63;6.43;;;;;;;;;;684059;28;1169;-67
2023/11/29 01:45:08;;;;;;;11.30;6.40;;;;;;;;;;681498;28;1375;-67
2023/11/29 01:45:28;;;;;;;12.00;6.60;;;;;;;;;;684627;28;1456;-65
2023/11/29 01:45:49;;;;;;;12.23;6.70;;;;;;;;;;683149;28;4335;-65
2023/11/29 01:46:10;;;;;;;11.00;6.53;;;;;;;;;;684463;28;1420;-66
2023/11/29 01:46:30;;;;;;;11.10;7.00;;;;;;;;;;684457;28;1435;-66
2023/11/29 01:46:51;;;;;;;11.23;6.67;;;;;;;;;;681172;28;1184;-66
2023/11/29 01:47:13;;;;;;;10.10;6.43;;;;;;;;;;684296;28;1491;-70
2023/11/29 01:47:37;;;;;;;11.13;6.40;;;;;;;;;;685713;28;1990;-67
2023/11/29 01:47:57;;;;;;;9.93;6.18;;;;;;;;;;685928;28;1026;-66
2023/11/29 01:48:18;;;;;;;10.45;6.60;;;;;;;;;;685231;28;1489;-68
2023/11/29 01:48:38;;;;;;;11.07;6.67;;;;;;;;;;684063;28;4287;-67
2023/11/29 01:48:59;;;;;;;10.85;6.47;;;;;;;;;;687964;28;1221;-67
2023/11/29 01:49:19;;;;;;;11.57;6.47;;;;;;;;;;686431;28;1498;-67
2023/11/29 01:49:40;;;;;;;10.13;6.30;;;;;;;;;;683880;28;1224;-68
2023/11/29 01:50:02;;;;;;;10.88;6.10;;;;;;;;;;684908;28;1268;-67
2023/11/29 01:50:25;;;;;;;10.65;6.40;;;;;;;;;;687285;28;1291;-67
2023/11/29 01:50:45;;;;;;;10.63;6.20;;;;;;;;;;685093;28;1280;-66
2023/11/29 01:51:06;;;;;;;10.63;6.27;;;;;;;;;;688331;28;1224;-66
2023/11/29 01:51:27;;;;;;;11.23;6.40;;;;;;;;;;689829;28;1379;-66
2023/11/29 01:51:47;;;;;;;10.93;6.45;;;;;;;;;;688600;28;4405;-67
2023/11/29 01:52:08;;;;;;;10.45;6.32;;;;;;;;;;687180;28;1261;-66
2023/11/29 01:52:29;;;;;;;10.98;6.38;;;;;;;;;;684563;28;1343;-65
2023/11/29 01:52:50;;;;;;;10.85;6.22;;;;;;;;;;681114;28;1280;-67
2023/11/29 01:53:11;;;;;;;10.70;6.25;;;;;;;;;;679108;29;1443;-66
2023/11/29 01:53:32;;;;;;;10.07;6.40;;;;;;;;;;678037;29;1362;-66
2023/11/29 01:53:52;;;;;;;11.10;6.53;;;;;;;;;;681273;28;1199;-66
2023/11/29 01:54:13;;;;;;;10.33;6.57;;;;;;;;;;684996;28;1351;-67
2023/11/29 01:54:34;;;;;;;10.32;6.50;;;;;;;;;;685574;28;1289;-67
2023/11/29 01:54:54;;;;;;;11.13;6.40;;;;;;;;;;682769;28;4428;-69
2023/11/29 01:55:16;;;;;;;10.83;6.53;;;;;;;;;;682237;29;1224;-66
2023/11/29 01:55:38;;;;;;;9.98;6.47;;;;;;;;;;679013;29;1498;-67
2023/11/29 01:55:58;;;;;;;10.60;6.75;;;;;;;;;;678626;29;1977;-68
2023/11/29 01:56:21;;;;;;;10.20;6.10;;;;;;;;;;676784;29;1257;-68
2023/11/29 01:56:41;;;;;;;10.68;6.55;;;;;;;;;;678146;28;1329;-68
2023/11/29 01:57:02;;;;;;;11.13;6.45;;;;;;;;;;682616;28;1375;-67
2023/11/29 01:57:22;;;;;;;10.87;6.10;;;;;;;;;;682267;29;1295;-69
2023/11/29 01:57:43;;;;;;;10.60;6.43;;;;;;;;;;679430;28;4487;-68
2023/11/29 01:58:03;;;;;;;11.27;6.55;;;;;;;;;;682243;29;1324;-69
2023/11/29 01:58:25;;;;;;;11.57;6.80;;;;;;;;;;684284;28;1300;-67
2023/11/29 01:58:45;;;;;;;10.80;6.18;;;;;;;;;;681495;28;1419;-66
2023/11/29 01:59:05;;;;;;;9.68;6.15;;;;;;;;;;682854;28;1350;-65
2023/11/29 01:59:26;;;;;;;10.03;6.33;;;;;;;;;;684161;28;1288;-66
2023/11/29 01:59:47;;;;;;;10.27;6.20;;;;;;;;;;685061;28;1252;-66
2023/11/29 02:00:07;;;;;;;10.30;5.78;;;;;;;;;;687006;28;1292;-66
2023/11/29 02:00:32;;;;;;;11.10;6.57;;;;;;;;;;686841;28;1082;-66
2023/11/29 02:00:54;;;;;;;9.85;6.28;;;;;;;;;;683952;28;4254;-66
2023/11/29 02:01:17;;;;;;;10.77;6.38;;;;;;;;;;687389;28;1411;-65
2023/11/29 02:01:37;;;;;;;10.15;6.30;;;;;;;;;;687066;28;1292;-66
2023/11/29 02:01:58;;;;;;;10.82;6.18;;;;;;;;;;683398;28;1344;-66
2023/11/29 02:02:19;;;;;;;11.52;6.18;;;;;;;;;;681770;29;1720;-66
2023/11/29 02:02:40;;;;;;;9.80;5.88;;;;;;;;;;681828;28;998;-68
2023/11/29 02:03:00;;;;;;;10.30;6.00;;;;;;;;;;681740;29;1220;-68
2023/11/29 02:03:21;;;;;;;10.07;6.30;;;;;;;;;;682327;28;1000;-67
2023/11/29 02:03:41;;;;;;;10.10;6.32;;;;;;;;;;682610;28;4323;-66
2023/11/29 02:04:01;;;;;;;10.57;6.30;;;;;;;;;;686664;28;1313;-68
2023/11/29 02:04:22;;;;;;;9.70;6.20;;;;;;;;;;689207;28;1160;-67
2023/11/29 02:04:42;;;;;;;10.48;6.35;;;;;;;;;;686961;28;1148;-66
2023/11/29 02:05:03;;;;;;;11.00;6.23;;;;;;;;;;689999;28;1243;-66
2023/11/29 02:05:23;;;;;;;11.15;6.50;;;;;;;;;;685802;28;1370;-66
2023/11/29 02:05:44;;;;;;;10.52;6.25;;;;;;;;;;686511;28;1180;-65
2023/11/29 02:06:05;;;;;;;10.17;5.80;;;;;;;;;;684297;28;1224;-67
2023/11/29 02:06:25;;;;;;;9.43;5.25;;;;;;;;;;685720;28;1382;-68